メインページ
METAR-TAF:

METAR-TAF

空港 :

フォール=ド=フランス, マルティニーク

マルティニーク・エメ・セゼール国際空港

緯度: 14-36N, 経度: 061-00W, 海抜: 5m

現時点の気象観測

当レポートは10分前の11:00(UTC)に作成
南/南東の風 5kt、東/南東からの間で変化する
気温 28°C
湿度 84%
気圧 1012 hPa
視程10km以上
高度2200ftの雲は散在している
高度4400ftの雲は散在している

METAR: TFFF 201100Z AUTO 15005KT 110V180 9999 SCT022 SCT044 28/25 Q1012 TEMPO 3000 SHRA BKN015TCU

時間: 07:10 (11:10 UTC)

予報

当レポートは6時間10分前の05:00(UTC)に作成
予報は20日の 06時(UTC)から 21日の 06時(UTC)まで有効
変向風 3kt
視程10km以上
高度2000ftの千切れ雲あり
確率 30% :
20日の 12時(UTC)から 20日の 18時(UTC)まで一時的に
視程: 3000m
高度1500ftの千切れ雲あり, 塔状積雲.
にわか雨
確率 40% :
20日の 18時(UTC)から 20日の 23時(UTC)まで一時的に
視程: 2000m
高度1000ftの千切れ雲あり, 積乱雲.
激しい雷雨, 雨

TAF: TFFF 200500Z 2006/2106 VRB03KT 9999 BKN020 PROB30 TEMPO 2012/2018 3000 SHRA BKN015TCU PROB40 TEMPO 2018/2023 2000 TSRA BKN010CB

4,000以上の空港の気象観測と天気予報(METAR報とTAF報)

利用可能な観測所は地図上に黄色い丸と赤い丸で示す。

丸の上にカーソルを重ねると観測所名を参照できる。

次にクリックすると気象観測と天気予報を参照できる。

マップの切り替え:黒色「×」印の緑ボタンをクリックして拡大、「-」印の緑ボタンをクリックして縮小、緑色の三角印をクリックして隣りの地図に切り替え


METAR-TAF: